DEBAB EDLE-EDLF
Flight info
| Callsign | DEBAB |
|---|---|
| Flight time | 0h 15m |
| Altitude | 4000 |
| Route | DCT |
| Aircraft | C172/L-SFG/C |
Departure
| Time | 2026-05-05 17:05 |
|---|---|
| Airport | Essen-Mülheim Airport (EDLE) |
Arrival
| Time | 2026-05-05 17:20 |
|---|---|
| Airport | Grefrath-Niershorst Airfield (EDLF) |
| Time | Latitude | Longitude | Altitude | Speed | Heading |
|---|---|---|---|---|---|
| 2026-05-05 16:52 | 51.40589 | 6.93980 | 414 ft | 0 kts | 263° |
| 2026-05-05 17:00 | 51.40596 | 6.93973 | 413 ft | 2 kts | 350° |
| 2026-05-05 17:01 | 51.40636 | 6.93967 | 405 ft | 13 kts | 13° |
| 2026-05-05 17:01 | 51.40651 | 6.94003 | 408 ft | 8 kts | 23° |
| 2026-05-05 17:01 | 51.40641 | 6.94154 | 416 ft | 11 kts | 126° |
| 2026-05-05 17:01 | 51.40613 | 6.94217 | 423 ft | 5 kts | 114° |
| 2026-05-05 17:02 | 51.40614 | 6.94268 | 418 ft | 5 kts | 80° |
| 2026-05-05 17:02 | 51.40581 | 6.94246 | 427 ft | 16 kts | 306° |
| 2026-05-05 17:02 | 51.40600 | 6.94253 | 424 ft | 3 kts | 136° |
| 2026-05-05 17:02 | 51.40595 | 6.94347 | 431 ft | 21 kts | 70° |
| 2026-05-05 17:03 | 51.40654 | 6.94561 | 430 ft | 19 kts | 64° |
| 2026-05-05 17:03 | 51.40659 | 6.94728 | 438 ft | 15 kts | 112° |
| 2026-05-05 17:03 | 51.40625 | 6.94864 | 440 ft | 15 kts | 118° |
| 2026-05-05 17:03 | 51.40567 | 6.94904 | 442 ft | 13 kts | 246° |
| 2026-05-05 17:04 | 51.40466 | 6.94523 | 435 ft | 62 kts | 246° |
| 2026-05-05 17:04 | 51.40239 | 6.93722 | 517 ft | 86 kts | 244° |
| 2026-05-05 17:04 | 51.39973 | 6.92902 | 718 ft | 88 kts | 244° |
| 2026-05-05 17:04 | 51.39727 | 6.91978 | 898 ft | 96 kts | 250° |
| 2026-05-05 17:05 | 51.39473 | 6.90924 | 1004 ft | 106 kts | 250° |
| 2026-05-05 17:05 | 51.39224 | 6.89787 | 1120 ft | 111 kts | 251° |
| 2026-05-05 17:05 | 51.38958 | 6.88664 | 1397 ft | 97 kts | 251° |
| 2026-05-05 17:05 | 51.38721 | 6.87626 | 1542 ft | 104 kts | 253° |
| 2026-05-05 17:06 | 51.38568 | 6.86418 | 1553 ft | 116 kts | 258° |
| 2026-05-05 17:06 | 51.38364 | 6.85149 | 1642 ft | 116 kts | 257° |
| 2026-05-05 17:06 | 51.38177 | 6.83873 | 1627 ft | 122 kts | 257° |
| 2026-05-05 17:06 | 51.37988 | 6.82556 | 1668 ft | 120 kts | 259° |
| 2026-05-05 17:07 | 51.37766 | 6.81291 | 1678 ft | 122 kts | 263° |
| 2026-05-05 17:07 | 51.37673 | 6.79885 | 1645 ft | 124 kts | 263° |
| 2026-05-05 17:07 | 51.37516 | 6.78546 | 1620 ft | 125 kts | 259° |
| 2026-05-05 17:07 | 51.37348 | 6.77202 | 1652 ft | 122 kts | 260° |
| 2026-05-05 17:08 | 51.37181 | 6.75876 | 1663 ft | 120 kts | 259° |
| 2026-05-05 17:08 | 51.37002 | 6.74561 | 1605 ft | 122 kts | 258° |
| 2026-05-05 17:08 | 51.36822 | 6.73256 | 1598 ft | 120 kts | 258° |
| 2026-05-05 17:08 | 51.36706 | 6.72380 | 1607 ft | 117 kts | 259° |
| 2026-05-05 17:09 | 51.36537 | 6.71149 | 1660 ft | 114 kts | 258° |
| 2026-05-05 17:09 | 51.36368 | 6.69881 | 1635 ft | 117 kts | 258° |
| 2026-05-05 17:09 | 51.36193 | 6.68623 | 1664 ft | 116 kts | 258° |
| 2026-05-05 17:09 | 51.36016 | 6.67336 | 1625 ft | 119 kts | 259° |
| 2026-05-05 17:10 | 51.35856 | 6.66063 | 1691 ft | 114 kts | 259° |
| 2026-05-05 17:10 | 51.35687 | 6.64801 | 1624 ft | 121 kts | 257° |
| 2026-05-05 17:10 | 51.35515 | 6.63505 | 1640 ft | 118 kts | 259° |
| 2026-05-05 17:10 | 51.35352 | 6.62230 | 1668 ft | 115 kts | 258° |
| 2026-05-05 17:11 | 51.35176 | 6.60976 | 1656 ft | 117 kts | 258° |
| 2026-05-05 17:11 | 51.35005 | 6.59708 | 1659 ft | 116 kts | 258° |
| 2026-05-05 17:11 | 51.34834 | 6.58440 | 1675 ft | 115 kts | 259° |
| 2026-05-05 17:11 | 51.34671 | 6.57179 | 1662 ft | 117 kts | 259° |
| 2026-05-05 17:12 | 51.34463 | 6.55902 | 1578 ft | 123 kts | 251° |
| 2026-05-05 17:12 | 51.34049 | 6.54718 | 1553 ft | 121 kts | 231° |
| 2026-05-05 17:12 | 51.33871 | 6.53495 | 1586 ft | 117 kts | 269° |
| 2026-05-05 17:12 | 51.33831 | 6.52182 | 1569 ft | 117 kts | 266° |
| 2026-05-05 17:13 | 51.33702 | 6.50927 | 1628 ft | 113 kts | 262° |
| 2026-05-05 17:13 | 51.33586 | 6.49674 | 1594 ft | 117 kts | 261° |
| 2026-05-05 17:13 | 51.33440 | 6.48408 | 1632 ft | 116 kts | 258° |
| 2026-05-05 17:13 | 51.33259 | 6.47173 | 1671 ft | 114 kts | 259° |
| 2026-05-05 17:14 | 51.33130 | 6.45894 | 1629 ft | 118 kts | 261° |
| 2026-05-05 17:14 | 51.32970 | 6.44628 | 1700 ft | 113 kts | 258° |
| 2026-05-05 17:14 | 51.32791 | 6.43385 | 1687 ft | 116 kts | 257° |
| 2026-05-05 17:14 | 51.32574 | 6.42120 | 1606 ft | 123 kts | 251° |
| 2026-05-05 17:15 | 51.32382 | 6.40824 | 1625 ft | 119 kts | 261° |
| 2026-05-05 17:15 | 51.32202 | 6.39522 | 1588 ft | 121 kts | 253° |
| 2026-05-05 17:15 | 51.31862 | 6.38292 | 1588 ft | 117 kts | 260° |
| 2026-05-05 17:15 | 51.31997 | 6.37024 | 1580 ft | 112 kts | 307° |
| 2026-05-05 17:16 | 51.32661 | 6.36374 | 1586 ft | 119 kts | 338° |
| 2026-05-05 17:16 | 51.33438 | 6.35884 | 1539 ft | 122 kts | 338° |
| 2026-05-05 17:16 | 51.34218 | 6.35389 | 1469 ft | 119 kts | 338° |
| 2026-05-05 17:16 | 51.34802 | 6.34639 | 1426 ft | 100 kts | 275° |
| 2026-05-05 17:17 | 51.34424 | 6.33858 | 1255 ft | 100 kts | 207° |
| 2026-05-05 17:17 | 51.33768 | 6.33797 | 1249 ft | 90 kts | 137° |
| 2026-05-05 17:17 | 51.33286 | 6.34631 | 1132 ft | 113 kts | 133° |
| 2026-05-05 17:17 | 51.32755 | 6.35600 | 1211 ft | 119 kts | 130° |
| 2026-05-05 17:18 | 51.32171 | 6.36589 | 1212 ft | 120 kts | 135° |
| 2026-05-05 17:18 | 51.32133 | 6.37647 | 1089 ft | 104 kts | 65° |
| 2026-05-05 17:18 | 51.32371 | 6.38660 | 1074 ft | 88 kts | 76° |
| 2026-05-05 17:18 | 51.32668 | 6.39387 | 1068 ft | 79 kts | 23° |
| 2026-05-05 17:19 | 51.33229 | 6.39234 | 904 ft | 92 kts | 340° |
| 2026-05-05 17:19 | 51.33815 | 6.38917 | 713 ft | 87 kts | 337° |
| 2026-05-05 17:19 | 51.34011 | 6.38230 | 536 ft | 76 kts | 245° |
| 2026-05-05 17:19 | 51.33800 | 6.37461 | 330 ft | 74 kts | 251° |
| 2026-05-05 17:20 | 51.33619 | 6.36743 | 183 ft | 65 kts | 243° |
| 2026-05-05 17:20 | 51.33457 | 6.36124 | 112 ft | 54 kts | 246° |
| 2026-05-05 17:20 | 51.33321 | 6.35669 | 109 ft | 38 kts | 246° |
| 2026-05-05 17:20 | 51.33240 | 6.35444 | 112 ft | 8 kts | 156° |
| 2026-05-05 17:21 | 51.33198 | 6.35490 | 111 ft | 4 kts | 53° |
| 2026-05-05 17:21 | 51.33201 | 6.35500 | 112 ft | 0 kts | 63° |
| 2026-05-05 17:23 | 51.33207 | 6.35521 | 112 ft | 14 kts | 63° |
| 2026-05-05 17:23 | 51.33286 | 6.35778 | 109 ft | 16 kts | 64° |
| 2026-05-05 17:23 | 51.33295 | 6.35807 | 109 ft | 3 kts | 63° |
| 2026-05-05 17:23 | 51.33377 | 6.36087 | 109 ft | 52 kts | 66° |
| 2026-05-05 17:24 | 51.33590 | 6.36770 | 204 ft | 75 kts | 61° |
| 2026-05-05 17:24 | 51.33866 | 6.37526 | 371 ft | 81 kts | 58° |
| 2026-05-05 17:24 | 51.34070 | 6.38334 | 620 ft | 80 kts | 90° |
| 2026-05-05 17:24 | 51.34045 | 6.39276 | 784 ft | 90 kts | 80° |
| 2026-05-05 17:25 | 51.34188 | 6.40334 | 887 ft | 104 kts | 78° |
| 2026-05-05 17:25 | 51.34294 | 6.41085 | 1022 ft | 104 kts | 77° |
| 2026-05-05 17:25 | 51.34574 | 6.42639 | 1239 ft | 108 kts | 72° |
| 2026-05-05 17:25 | 51.34838 | 6.43772 | 1421 ft | 107 kts | 69° |
| 2026-05-05 17:26 | 51.35119 | 6.44838 | 1674 ft | 101 kts | 70° |
| 2026-05-05 17:26 | 51.35346 | 6.45930 | 1793 ft | 110 kts | 75° |
| 2026-05-05 17:26 | 51.35559 | 6.47155 | 1861 ft | 117 kts | 76° |
| 2026-05-05 17:26 | 51.35786 | 6.48481 | 1830 ft | 126 kts | 71° |
| 2026-05-05 17:27 | 51.36030 | 6.49781 | 1962 ft | 121 kts | 77° |
| 2026-05-05 17:27 | 51.36221 | 6.51066 | 2098 ft | 119 kts | 77° |
| 2026-05-05 17:27 | 51.36420 | 6.52348 | 2184 ft | 122 kts | 74° |
| 2026-05-05 17:27 | 51.36638 | 6.53684 | 2220 ft | 124 kts | 78° |
| 2026-05-05 17:28 | 51.36846 | 6.55009 | 2319 ft | 122 kts | 74° |
| 2026-05-05 17:28 | 51.37080 | 6.56311 | 2419 ft | 119 kts | 84° |
| 2026-05-05 17:28 | 51.36785 | 6.57509 | 2478 ft | 121 kts | 143° |
| 2026-05-05 17:28 | 51.36050 | 6.58160 | 2554 ft | 121 kts | 161° |
| 2026-05-05 17:29 | 51.35212 | 6.58526 | 2507 ft | 127 kts | 166° |
| 2026-05-05 17:29 | 51.34373 | 6.58989 | 2488 ft | 129 kts | 160° |
| 2026-05-05 17:29 | 51.33522 | 6.59522 | 2403 ft | 132 kts | 161° |
| 2026-05-05 17:29 | 51.32700 | 6.60051 | 2518 ft | 123 kts | 158° |
| 2026-05-05 17:30 | 51.31900 | 6.60619 | 2393 ft | 124 kts | 157° |
| 2026-05-05 17:30 | 51.31120 | 6.61207 | 2199 ft | 124 kts | 155° |
| 2026-05-05 17:30 | 51.30375 | 6.61852 | 2069 ft | 122 kts | 153° |
| 2026-05-05 17:30 | 51.29640 | 6.62545 | 1889 ft | 123 kts | 150° |
| 2026-05-05 17:31 | 51.28922 | 6.63279 | 1728 ft | 121 kts | 147° |
| 2026-05-05 17:31 | 51.28255 | 6.64046 | 1665 ft | 115 kts | 144° |
| 2026-05-05 17:31 | 51.27633 | 6.64847 | 1576 ft | 119 kts | 141° |
| 2026-05-05 17:31 | 51.27013 | 6.65720 | 1529 ft | 121 kts | 139° |
| 2026-05-05 17:32 | 51.26393 | 6.66675 | 1425 ft | 124 kts | 135° |
| 2026-05-05 17:32 | 51.25833 | 6.67720 | 1358 ft | 124 kts | 128° |
| 2026-05-05 17:32 | 51.25419 | 6.68929 | 1263 ft | 126 kts | 107° |
| 2026-05-05 17:32 | 51.25495 | 6.70256 | 1136 ft | 121 kts | 60° |
| 2026-05-05 17:33 | 51.26029 | 6.71313 | 899 ft | 123 kts | 49° |
| 2026-05-05 17:33 | 51.26538 | 6.72255 | 768 ft | 101 kts | 50° |
| 2026-05-05 17:33 | 51.26942 | 6.73075 | 609 ft | 90 kts | 52° |
| 2026-05-05 17:33 | 51.27318 | 6.73846 | 427 ft | 86 kts | 53° |
| 2026-05-05 17:34 | 51.27678 | 6.74596 | 256 ft | 84 kts | 53° |
| 2026-05-05 17:34 | 51.28019 | 6.75309 | 144 ft | 76 kts | 53° |
| 2026-05-05 17:34 | 51.28304 | 6.75909 | 124 ft | 51 kts | 53° |
| 2026-05-05 17:34 | 51.28472 | 6.76265 | 124 ft | 34 kts | 53° |
| 2026-05-05 17:35 | 51.28600 | 6.76538 | 123 ft | 26 kts | 53° |
| 2026-05-05 17:35 | 51.28590 | 6.76670 | 122 ft | 13 kts | 142° |
| 2026-05-05 17:35 | 51.28533 | 6.76739 | 118 ft | 4 kts | 141° |
| 2026-05-05 17:35 | 51.28531 | 6.76741 | 118 ft | 0 kts | 141° |
| 2026-05-05 17:36 | 51.28510 | 6.76759 | 121 ft | 6 kts | 167° |
| 2026-05-05 17:36 | 51.28476 | 6.76743 | 121 ft | 6 kts | 221° |
| 2026-05-05 17:36 | 51.28436 | 6.76663 | 121 ft | 13 kts | 233° |